Time;durP1;ratioP1;P1;durP2;ratioP2;P2;SDS_P1;SDS_P2;PMS_P1;PMS_P2;Temp;Humidity;BMP_temperature;BMP_pressure;BME280_temperature;BME280_humidity;BME280_pressure;Samples;Min_cycle;Max_cycle;Signal;HPM_P1;HPM_P2
2022/12/10 05:25:22;;;;;;;14.85;6.15;;;;;;;0.75;100.00;99225.69;5109363;28;20039;-69
2022/12/10 05:27:48;;;;;;;18.83;7.05;;;;;;;0.80;100.00;99220.88;5109285;28;20035;-69
2022/12/10 05:30:13;;;;;;;22.92;9.32;;;;;;;0.87;100.00;99221.16;5107734;28;20063;-69
2022/12/10 05:32:39;;;;;;;28.52;8.77;;;;;;;0.85;100.00;99223.94;5109300;28;20540;-69
2022/12/10 05:35:05;;;;;;;12.98;6.32;;;;;;;0.80;100.00;99226.94;5109741;28;20100;-69
2022/12/10 05:37:31;;;;;;;27.10;9.07;;;;;;;0.80;100.00;99226.94;5109104;28;20040;-69
2022/12/10 05:39:56;;;;;;;22.13;7.82;;;;;;;0.70;100.00;99226.09;5109085;28;20507;-69
2022/12/10 05:42:21;;;;;;;21.02;9.75;;;;;;;0.74;100.00;99224.88;5108796;28;20035;-69
2022/12/10 05:44:47;;;;;;;23.77;8.95;;;;;;;0.79;100.00;99233.16;5109103;28;20040;-69
2022/12/10 05:47:12;;;;;;;23.90;8.98;;;;;;;0.76;100.00;99236.03;5109114;28;20040;-70
2022/12/10 05:49:37;;;;;;;20.00;8.32;;;;;;;0.77;100.00;99242.94;5109121;28;20035;-69
2022/12/10 05:52:03;;;;;;;16.42;8.15;;;;;;;0.77;100.00;99253.41;5109047;28;20122;-70
2022/12/10 05:54:28;;;;;;;24.92;9.68;;;;;;;0.85;100.00;99246.66;5109130;28;20050;-70
2022/12/10 05:56:54;;;;;;;23.52;10.48;;;;;;;0.79;100.00;99230.53;5108772;28;20078;-69
2022/12/10 05:59:19;;;;;;;25.55;9.63;;;;;;;0.82;100.00;99247.78;5108894;28;20032;-69
2022/12/10 06:01:45;;;;;;;23.52;9.00;;;;;;;0.87;100.00;99240.34;5108539;28;20070;-70
2022/12/10 06:04:11;;;;;;;19.13;7.63;;;;;;;0.84;100.00;99237.97;5108836;28;20040;-69
2022/12/10 06:06:38;;;;;;;22.33;8.52;;;;;;;0.91;100.00;99241.72;5108716;28;20378;-69
2022/12/10 06:09:05;;;;;;;26.02;8.98;;;;;;;0.87;100.00;99242.97;5108662;28;20039;-70
2022/12/10 06:11:31;;;;;;;21.37;9.10;;;;;;;0.82;100.00;99246.00;5106819;28;20070;-69
2022/12/10 06:13:57;;;;;;;29.00;10.32;;;;;;;0.80;100.00;99247.09;5107294;28;20039;-69
2022/12/10 06:16:24;;;;;;;22.30;9.65;;;;;;;0.74;100.00;99253.69;5108475;28;20038;-69
2022/12/10 06:18:50;;;;;;;19.73;9.15;;;;;;;0.75;100.00;99255.34;5108499;28;20173;-69
2022/12/10 06:21:17;;;;;;;27.23;10.02;;;;;;;0.67;100.00;99263.06;5108030;28;20528;-69
2022/12/10 06:23:43;;;;;;;24.42;10.90;;;;;;;0.68;100.00;99256.84;5108397;28;20039;-69
2022/12/10 06:26:12;;;;;;;29.75;9.27;;;;;;;0.64;100.00;99241.53;5108234;28;20118;-69
2022/12/10 06:28:38;;;;;;;29.02;10.80;;;;;;;0.75;100.00;99259.78;5108217;28;20034;-69
2022/12/10 06:31:03;;;;;;;29.65;10.10;;;;;;;0.68;100.00;99259.47;5107834;28;20476;-69
2022/12/10 06:33:29;;;;;;;26.33;10.13;;;;;;;0.68;100.00;99272.59;5097492;28;20390;-69
2022/12/10 06:35:55;;;;;;;28.05;10.82;;;;;;;0.69;100.00;99276.88;5094493;28;20036;-69
2022/12/10 06:38:20;;;;;;;20.33;8.43;;;;;;;0.68;100.00;99282.25;5094628;28;20064;-70
2022/12/10 06:40:46;;;;;;;37.97;13.23;;;;;;;0.76;100.00;99295.50;5094130;28;20114;-69
2022/12/10 06:43:11;;;;;;;25.23;10.38;;;;;;;0.81;100.00;99290.69;5094477;28;20044;-69
2022/12/10 06:45:39;;;;;;;37.63;10.27;;;;;;;0.75;100.00;99293.84;5094346;28;20032;-69
2022/12/10 06:48:04;;;;;;;22.55;8.38;;;;;;;0.72;100.00;99296.75;5094525;28;20040;-69
2022/12/10 06:50:30;;;;;;;24.95;9.68;;;;;;;0.75;100.00;99297.31;5093914;28;20047;-69
2022/12/10 06:52:55;;;;;;;27.33;10.38;;;;;;;0.74;100.00;99300.91;5094418;28;20139;-69
2022/12/10 06:55:21;;;;;;;30.00;11.73;;;;;;;0.75;100.00;99307.78;5094002;28;20081;-69
2022/12/10 06:57:50;;;;;;;28.15;10.02;;;;;;;0.75;100.00;99312.22;5094187;28;20070;-69
2022/12/10 07:00:15;;;;;;;34.13;10.48;;;;;;;0.62;100.00;99315.06;5093698;28;20101;-69
2022/12/10 07:02:41;;;;;;;26.63;9.00;;;;;;;0.69;100.00;99308.31;5094002;28;20036;-69
2022/12/10 07:05:06;;;;;;;32.42;13.10;;;;;;;0.75;100.00;99306.97;5094072;28;20032;-69
2022/12/10 07:07:32;;;;;;;30.92;9.80;;;;;;;0.79;100.00;99318.84;5093903;28;20040;-69
2022/12/10 07:09:57;;;;;;;23.75;10.18;;;;;;;0.82;100.00;99308.09;5093757;28;20062;-70
2022/12/10 07:12:22;;;;;;;30.05;10.27;;;;;;;0.81;100.00;99320.38;5093569;28;20040;-69
2022/12/10 07:14:48;;;;;;;40.13;11.70;;;;;;;0.79;100.00;99319.69;5093881;28;20036;-69
2022/12/10 07:17:13;;;;;;;24.23;9.50;;;;;;;0.80;100.00;99320.50;5093837;28;20040;-68
2022/12/10 07:19:39;;;;;;;36.72;12.90;;;;;;;0.72;100.00;99318.56;5093878;28;20063;-67
2022/12/10 07:22:04;;;;;;;26.50;10.65;;;;;;;0.71;100.00;99321.28;5093438;28;20122;-69
2022/12/10 07:24:29;;;;;;;31.05;10.05;;;;;;;0.75;100.00;99318.28;5093801;28;20040;-68
2022/12/10 07:26:55;;;;;;;34.30;10.93;;;;;;;0.77;100.00;99323.38;5093957;28;20071;-68
2022/12/10 07:29:21;;;;;;;30.48;10.80;;;;;;;0.82;100.00;99329.06;5095331;28;20083;-63
2022/12/10 07:31:48;;;;;;;25.90;10.48;;;;;;;0.65;100.00;99327.91;5095114;28;20040;-63
2022/12/10 07:34:14;;;;;;;29.15;10.32;;;;;;;0.72;100.00;99333.47;5094645;28;20507;-63
2022/12/10 07:36:40;;;;;;;23.90;10.48;;;;;;;0.70;100.00;99336.19;5094363;28;20423;-63
2022/12/10 07:39:08;;;;;;;32.17;11.82;;;;;;;0.75;100.00;99351.53;5094591;28;20059;-63
2022/12/10 07:41:34;;;;;;;35.97;11.60;;;;;;;0.80;100.00;99347.56;5093235;28;20032;-68
2022/12/10 07:44:00;;;;;;;31.30;11.30;;;;;;;0.82;100.00;99356.09;5092758;28;20134;-68
2022/12/10 07:46:28;;;;;;;20.88;9.60;;;;;;;0.85;100.00;99362.91;5092014;28;20510;-67
2022/12/10 07:48:54;;;;;;;32.70;11.57;;;;;;;0.81;100.00;99357.06;5093401;28;20396;-68
2022/12/10 07:51:21;;;;;;;35.25;11.18;;;;;;;0.74;100.00;99357.75;5093154;28;20033;-68
2022/12/10 07:53:47;;;;;;;27.98;12.05;;;;;;;0.80;100.00;99360.66;5093239;28;20093;-68
2022/12/10 07:56:13;;;;;;;36.80;11.82;;;;;;;0.66;100.00;99350.53;5093469;28;20429;-68
2022/12/10 07:58:42;;;;;;;29.88;11.75;;;;;;;0.68;100.00;99359.09;5094641;28;20036;-67
2022/12/10 08:01:14;;;;;;;27.75;10.27;;;;;;;0.81;100.00;99362.31;5092894;28;20378;-68
2022/12/10 08:03:40;;;;;;;31.05;10.20;;;;;;;0.89;100.00;99355.56;5089143;28;20768;-68
2022/12/10 08:06:09;;;;;;;27.80;10.65;;;;;;;0.85;100.00;99354.16;5092864;28;20032;-67
2022/12/10 08:08:36;;;;;;;31.52;11.35;;;;;;;0.81;100.00;99361.50;5092930;28;20051;-68
2022/12/10 08:11:02;;;;;;;25.90;10.32;;;;;;;0.63;100.00;99349.97;5092450;28;20105;-66
2022/12/10 08:13:29;;;;;;;26.13;10.55;;;;;;;0.70;100.00;99356.34;5092617;28;20476;-68
2022/12/10 08:16:00;;;;;;;26.75;9.82;;;;;;;0.80;100.00;99365.91;5092770;28;20056;-67
2022/12/10 08:18:25;;;;;;;20.52;8.80;;;;;;;0.81;100.00;99369.34;5092768;28;20024;-67
2022/12/10 08:20:51;;;;;;;23.25;9.80;;;;;;;0.87;100.00;99370.63;5092293;28;20040;-69
2022/12/10 08:23:16;;;;;;;30.60;10.10;;;;;;;0.78;100.00;99369.59;5092649;28;20036;-68
2022/12/10 08:25:42;;;;;;;23.33;8.25;;;;;;;0.84;100.00;99374.31;5092587;28;20097;-66
2022/12/10 08:28:08;;;;;;;27.17;9.32;;;;;;;0.89;100.00;99366.91;5092514;28;20032;-68
2022/12/10 08:30:34;;;;;;;34.78;11.18;;;;;;;0.86;100.00;99372.41;5090985;28;20137;-67
2022/12/10 08:32:59;;;;;;;34.63;11.10;;;;;;;0.95;100.00;99378.66;5092476;28;20119;-67
2022/12/10 08:35:25;;;;;;;23.75;8.73;;;;;;;0.94;100.00;99382.25;5092315;28;20477;-69
2022/12/10 08:37:51;;;;;;;31.40;10.63;;;;;;;0.93;100.00;99380.59;5092693;28;20028;-69
2022/12/10 08:40:16;;;;;;;23.13;8.25;;;;;;;1.00;100.00;99389.56;5092088;28;20042;-69
2022/12/10 08:42:42;;;;;;;29.08;8.88;;;;;;;0.89;100.00;99384.44;5092338;28;20122;-67
2022/12/10 08:45:08;;;;;;;25.85;10.63;;;;;;;0.99;100.00;99395.78;5092371;28;20036;-68
2022/12/10 08:47:33;;;;;;;28.05;9.38;;;;;;;0.99;100.00;99398.41;5092332;28;20504;-69
2022/12/10 08:49:59;;;;;;;20.27;9.15;;;;;;;1.06;100.00;99399.53;5092056;28;20068;-65
2022/12/10 08:52:24;;;;;;;19.77;7.38;;;;;;;1.06;100.00;99400.38;5091938;28;20078;-65
2022/12/10 08:54:49;;;;;;;29.38;9.63;;;;;;;1.13;100.00;99397.22;5092064;28;20320;-66
2022/12/10 08:57:15;;;;;;;24.10;9.73;;;;;;;1.13;100.00;99405.09;5092118;28;20069;-66
2022/12/10 08:59:40;;;;;;;27.58;10.43;;;;;;;1.17;100.00;99403.84;5092233;28;20144;-65
2022/12/10 09:02:10;;;;;;;23.77;9.18;;;;;;;1.14;100.00;99397.06;5091878;28;20035;-66
2022/12/10 09:04:35;;;;;;;22.00;8.93;;;;;;;1.23;100.00;99395.44;5092006;28;20035;-66
2022/12/10 09:07:01;;;;;;;25.38;8.88;;;;;;;1.17;100.00;99403.84;5091925;28;20027;-67
2022/12/10 09:09:27;;;;;;;26.95;7.72;;;;;;;1.26;100.00;99400.44;5092008;28;20123;-66
2022/12/10 09:11:52;;;;;;;26.63;8.73;;;;;;;1.22;100.00;99404.28;5090222;28;20039;-66
2022/12/10 09:14:17;;;;;;;27.55;9.40;;;;;;;1.26;100.00;99411.75;5091965;28;20040;-66
2022/12/10 09:16:43;;;;;;;19.45;8.18;;;;;;;1.26;100.00;99411.75;5091888;28;20066;-66
2022/12/10 09:19:08;;;;;;;27.40;8.88;;;;;;;1.18;100.00;99411.59;5091832;28;20477;-65
2022/12/10 09:21:35;;;;;;;28.17;8.93;;;;;;;1.08;100.00;99421.22;5091476;28;20058;-67
2022/12/10 09:24:00;;;;;;;19.77;7.97;;;;;;;1.17;100.00;99425.66;5090648;28;20048;-67
2022/12/10 09:26:27;;;;;;;23.85;8.70;;;;;;;1.12;100.00;99427.88;5091789;28;20131;-67
2022/12/10 09:28:52;;;;;;;28.60;9.70;;;;;;;1.12;100.00;99425.25;5091806;28;20485;-67
2022/12/10 09:31:19;;;;;;;23.42;9.93;;;;;;;1.10;100.00;99429.75;5091407;28;20130;-67
2022/12/10 09:33:46;;;;;;;20.90;7.72;;;;;;;1.13;100.00;99429.53;5091781;28;20032;-67
2022/12/10 09:36:13;;;;;;;21.52;7.63;;;;;;;1.15;100.00;99435.47;5091888;28;20439;-67
2022/12/10 09:38:42;;;;;;;24.80;9.88;;;;;;;0.92;100.00;99428.75;5091662;28;20085;-66
2022/12/10 09:41:10;;;;;;;23.92;8.50;;;;;;;1.06;100.00;99437.09;5088790;28;20074;-66
2022/12/10 09:43:35;;;;;;;28.35;8.85;;;;;;;1.01;100.00;99438.44;5091560;28;20396;-66
2022/12/10 09:46:29;;;;;;;26.27;10.77;;;;;;;1.17;100.00;99441.38;5091430;28;20024;-64
2022/12/10 09:49:21;;;;;;;26.73;9.10;;;;;;;1.13;100.00;99442.63;5091556;28;20537;-67
2022/12/10 09:51:46;;;;;;;25.48;8.45;;;;;;;1.14;100.00;99448.72;5090989;28;20036;-67
2022/12/10 09:54:21;;;;;;;20.00;8.98;;;;;;;1.24;100.00;99447.78;5091472;28;20462;-66
2022/12/10 09:56:48;;;;;;;24.90;9.82;;;;;;;1.17;100.00;99444.00;5091370;28;20400;-66
2022/12/10 09:59:24;;;;;;;18.40;7.15;;;;;;;1.19;100.00;99438.66;5091615;28;20081;-65
2022/12/10 10:02:03;;;;;;;18.38;8.30;;;;;;;1.17;100.00;99435.31;5091247;28;20032;-66
2022/12/10 10:04:29;;;;;;;19.60;7.70;;;;;;;1.35;100.00;99439.78;5091420;28;20054;-66
2022/12/10 10:06:54;;;;;;;23.95;9.27;;;;;;;1.41;100.00;99437.59;5091312;28;20032;-66
2022/12/10 10:09:20;;;;;;;22.48;8.20;;;;;;;1.26;100.00;99437.16;5094952;28;20485;-66
2022/12/10 10:11:47;;;;;;;18.75;7.55;;;;;;;1.40;100.00;99439.41;5094756;28;20039;-67
2022/12/10 10:14:22;;;;;;;21.05;7.95;;;;;;;1.43;100.00;99440.91;5095162;28;20494;-67
2022/12/10 10:17:00;;;;;;;23.88;10.23;;;;;;;1.50;100.00;99444.66;5095203;28;20043;-67
2022/12/10 10:19:29;;;;;;;18.60;7.93;;;;;;;1.45;100.00;99439.84;5094970;28;20039;-65
2022/12/10 10:21:55;;;;;;;20.50;6.90;;;;;;;1.35;100.00;99452.09;5094446;28;20121;-66
2022/12/10 10:24:33;;;;;;;17.80;7.47;;;;;;;1.39;100.00;99447.41;5094666;28;20043;-67
2022/12/10 10:27:01;;;;;;;;;;;;;;;1.28;100.00;99445.72;5094347;28;20039;-66
2022/12/10 10:29:27;;;;;;;22.33;8.50;;;;;;;1.31;100.00;99432.34;5095230;28;19912;-66
2022/12/10 10:32:19;;;;;;;21.70;8.27;;;;;;;1.29;100.00;99442.94;5094362;28;20185;-67
2022/12/10 10:34:46;;;;;;;15.80;6.65;;;;;;;1.31;100.00;99445.47;5094905;28;20040;-68
2022/12/10 10:37:19;;;;;;;19.45;9.07;;;;;;;1.30;100.00;99447.25;5093427;28;20057;-67
2022/12/10 10:39:50;;;;;;;23.05;10.02;;;;;;;1.33;100.00;99446.97;5094966;28;20492;-67
2022/12/10 10:42:43;;;;;;;16.15;7.25;;;;;;;1.27;100.00;99444.88;5094552;28;20097;-67
2022/12/10 10:45:32;;;;;;;19.75;7.68;;;;;;;1.32;100.00;99455.81;5093114;28;20044;-67
2022/12/10 10:48:17;;;;;;;23.95;7.70;;;;;;;1.24;100.00;99447.78;5094456;28;20035;-66
2022/12/10 10:51:05;;;;;;;18.75;8.20;;;;;;;1.28;100.00;99451.78;5094125;28;20044;-67
2022/12/10 10:53:30;;;;;;;22.40;7.50;;;;;;;1.28;100.00;99457.03;5094580;28;20070;-67
2022/12/10 10:56:00;;;;;;;18.52;7.10;;;;;;;1.27;100.00;99455.38;5093354;28;20036;-66
2022/12/10 10:58:27;;;;;;;18.60;7.38;;;;;;;1.28;100.00;99454.41;5094605;28;20036;-66
2022/12/10 11:00:58;;;;;;;27.30;7.63;;;;;;;1.35;100.00;99455.53;5094291;28;20063;-67
2022/12/10 11:03:26;;;;;;;20.98;6.93;;;;;;;1.39;100.00;99455.28;5094363;28;20123;-67
2022/12/10 11:05:51;;;;;;;20.00;8.73;;;;;;;1.49;100.00;99453.50;5094526;28;20032;-67
2022/12/10 11:08:20;;;;;;;16.52;7.18;;;;;;;1.41;99.68;99456.81;5094444;28;20043;-66
2022/12/10 11:10:51;;;;;;;18.33;7.85;;;;;;;1.43;100.00;99465.38;5094061;28;20036;-67
2022/12/10 11:13:25;;;;;;;18.10;7.93;;;;;;;1.52;99.52;99466.38;5093222;28;20054;-67
2022/12/10 11:16:17;;;;;;;19.83;7.10;;;;;;;1.58;98.86;99468.47;5093978;28;20408;-67
2022/12/10 11:18:53;;;;;;;19.80;7.78;;;;;;;1.58;98.75;99471.09;5094029;28;20032;-67
2022/12/10 11:21:21;;;;;;;17.03;7.90;;;;;;;1.66;98.79;99468.63;5093745;28;20031;-68
2022/12/10 11:23:52;;;;;;;20.50;7.53;;;;;;;1.70;99.33;99463.94;5094198;28;20571;-69
2022/12/10 11:26:52;;;;;;;19.42;7.97;;;;;;;1.65;97.13;99464.34;5093977;28;20077;-67
2022/12/10 11:29:39;;;;;;;16.08;5.85;;;;;;;1.77;96.42;99458.00;5094088;28;20040;-68
2022/12/10 11:32:10;;;;;;;12.50;6.43;;;;;;;1.57;98.06;99451.06;5093586;28;20097;-69
2022/12/10 11:35:01;;;;;;;14.85;7.18;;;;;;;1.75;97.79;99454.66;5113277;22;20339;-64
2022/12/10 11:37:31;;;;;;;17.00;7.32;;;;;;;1.90;96.56;99453.31;5088890;28;20112;-66
2022/12/10 11:40:29;;;;;;;15.05;7.05;;;;;;;1.98;95.38;99455.25;5073049;28;20036;-66
2022/12/10 11:43:10;;;;;;;19.17;8.02;;;;;;;1.98;96.60;99451.78;5070492;28;20120;-64
2022/12/10 11:45:47;;;;;;;12.52;7.15;;;;;;;1.94;94.01;99458.28;5085177;28;20055;-64
2022/12/10 11:48:29;;;;;;;12.98;6.75;;;;;;;1.98;95.35;99454.41;5093342;28;20488;-64
2022/12/10 11:51:02;;;;;;;19.33;8.95;;;;;;;2.07;94.55;99449.16;5092987;28;20032;-66
2022/12/10 11:53:45;;;;;;;15.23;6.28;;;;;;;2.17;93.39;99455.25;5093153;28;20040;-64
2022/12/10 11:56:26;;;;;;;15.85;7.07;;;;;;;2.10;94.78;99455.94;5093169;28;20028;-64
2022/12/10 11:58:58;;;;;;;13.25;6.00;;;;;;;1.87;94.60;99453.56;5091858;28;20071;-66
2022/12/10 12:01:23;;;;;;;12.23;6.75;;;;;;;2.03;94.10;99454.84;5092717;28;20032;-65
2022/12/10 12:04:10;;;;;;;16.05;7.80;;;;;;;2.12;92.95;99461.88;5092859;28;20104;-64
2022/12/10 12:06:56;;;;;;;15.63;7.28;;;;;;;2.15;93.14;99458.97;5093024;28;20024;-64
2022/12/10 12:09:34;;;;;;;22.40;7.75;;;;;;;2.21;93.86;99468.94;5091557;28;20139;-64
2022/12/10 12:12:33;;;;;;;18.45;7.32;;;;;;;2.15;93.11;99466.84;5092583;28;20077;-66
2022/12/10 12:15:08;;;;;;;15.38;7.00;;;;;;;2.09;93.49;99470.06;5072241;28;20053;-66
2022/12/10 12:17:40;;;;;;;11.38;6.45;;;;;;;2.11;93.71;99476.00;5092724;28;20036;-66
2022/12/10 12:20:20;;;;;;;17.63;7.15;;;;;;;2.18;94.42;99477.94;5092466;28;20128;-66
2022/12/10 12:22:53;;;;;;;16.92;8.13;;;;;;;2.21;94.03;99479.44;5091896;28;20078;-66
2022/12/10 12:25:30;;;;;;;21.98;8.25;;;;;;;2.24;94.52;99478.34;5095032;28;20443;-66
2022/12/10 12:28:19;;;;;;;16.63;7.50;;;;;;;2.05;94.66;99477.38;5091932;28;20386;-66
2022/12/10 12:30:48;;;;;;;17.90;7.63;;;;;;;2.15;94.60;99478.22;5077838;28;20117;-66
2022/12/10 12:33:31;;;;;;;17.95;7.78;;;;;;;2.00;94.30;99476.94;5092274;28;20516;-66
2022/12/10 12:36:06;;;;;;;19.48;7.90;;;;;;;1.87;93.61;99474.59;5091026;28;20413;-66
2022/12/10 12:38:52;;;;;;;14.23;7.00;;;;;;;1.91;94.88;99475.16;5091279;28;20488;-66
2022/12/10 12:41:39;;;;;;;16.30;7.47;;;;;;;1.94;95.45;99476.66;5092014;28;20066;-66
2022/12/10 12:44:15;;;;;;;19.63;8.18;;;;;;;1.97;95.43;99481.66;5092245;28;20044;-66
2022/12/10 12:46:46;;;;;;;18.40;7.03;;;;;;;2.00;95.40;99490.09;5091058;28;20132;-66
2022/12/10 12:49:28;;;;;;;17.48;6.45;;;;;;;1.98;96.65;99485.94;5092035;28;20064;-66
2022/12/10 12:52:05;;;;;;;12.98;5.82;;;;;;;1.95;95.96;99487.03;5091723;28;20059;-63
2022/12/10 12:54:32;;;;;;;18.48;7.35;;;;;;;1.95;94.61;99497.53;5092087;28;20027;-65
2022/12/10 12:57:06;;;;;;;14.80;6.60;;;;;;;1.78;94.76;99491.16;5092149;28;20052;-66
2022/12/10 12:59:52;;;;;;;12.23;6.40;;;;;;;1.68;95.33;99489.47;5092177;28;20055;-64
2022/12/10 13:02:39;;;;;;;13.50;6.50;;;;;;;1.77;97.39;99500.00;5091760;28;20047;-58
2022/12/10 13:05:05;;;;;;;17.23;6.78;;;;;;;1.85;95.58;99504.59;5091915;28;20035;-66
2022/12/10 13:07:33;;;;;;;15.68;6.30;;;;;;;1.92;93.79;99508.34;5090915;28;20035;-66
2022/12/10 13:10:16;;;;;;;11.35;4.95;;;;;;;1.90;94.84;99516.34;5091833;28;20090;-65
2022/12/10 13:12:51;;;;;;;14.88;5.30;;;;;;;2.03;93.08;99516.09;5091919;28;20043;-66
2022/12/10 13:15:38;;;;;;;16.23;6.65;;;;;;;1.85;93.19;99512.47;5092069;28;20061;-65
2022/12/10 13:18:20;;;;;;;12.93;6.72;;;;;;;2.03;92.82;99508.22;5091849;28;20040;-64
2022/12/10 13:20:51;;;;;;;11.90;5.38;;;;;;;2.11;91.48;99515.41;5090141;28;20040;-65
2022/12/10 13:23:25;;;;;;;14.55;6.07;;;;;;;2.07;92.20;99511.38;5091792;28;20097;-65
2022/12/10 13:25:54;;;;;;;14.23;6.07;;;;;;;2.19;90.96;99518.19;5091776;28;20114;-65
2022/12/10 13:28:27;;;;;;;10.82;6.18;;;;;;;2.11;91.87;99512.78;5091693;28;20421;-64
2022/12/10 13:31:21;;;;;;;11.73;6.25;;;;;;;2.17;91.39;99526.19;5091326;28;20032;-64
2022/12/10 13:34:02;;;;;;;17.30;6.85;;;;;;;2.14;91.53;99528.25;5091627;28;20036;-64
2022/12/10 13:36:56;;;;;;;9.75;5.93;;;;;;;2.06;93.14;99530.75;5091490;28;20039;-65
2022/12/10 13:39:33;;;;;;;15.18;6.45;;;;;;;2.19;90.26;99536.56;5090079;28;20111;-65
2022/12/10 13:45:21;;;;;;;9.52;5.35;;;;;;;2.08;89.51;99539.31;5094210;28;20047;-65
2022/12/10 13:47:52;;;;;;;8.20;4.80;;;;;;;1.95;92.79;99544.00;5089530;28;20484;-65
2022/12/10 13:50:29;;;;;;;9.98;5.35;;;;;;;1.92;91.71;99552.16;5095306;28;20048;-65
2022/12/10 13:53:38;;;;;;;10.38;5.90;;;;;;;1.83;91.66;99551.19;5095790;28;20438;-65
2022/12/10 13:56:24;;;;;;;8.77;4.43;;;;;;;1.82;89.31;99566.06;5095285;28;20040;-65
2022/12/10 13:59:11;;;;;;;9.18;4.53;;;;;;;1.90;89.78;99568.88;5095437;28;20028;-65
2022/12/10 14:01:58;;;;;;;12.37;6.03;;;;;;;1.94;89.39;99573.84;5094994;28;20054;-66
2022/12/10 14:04:51;;;;;;;12.70;4.97;;;;;;;1.99;91.10;99571.66;5095178;28;20286;-65
2022/12/10 14:07:17;;;;;;;7.65;4.55;;;;;;;1.90;91.61;99581.19;5095090;28;20036;-66
2022/12/10 14:09:54;;;;;;;9.02;4.55;;;;;;;1.97;88.56;99581.47;5095183;28;20024;-65
2022/12/10 14:12:25;;;;;;;10.65;5.13;;;;;;;1.96;88.67;99578.03;5094951;28;20036;-65
2022/12/10 14:15:00;;;;;;;7.95;4.88;;;;;;;1.94;87.45;99579.94;5095247;28;20659;-66
2022/12/10 14:17:34;;;;;;;12.65;6.55;;;;;;;1.94;88.85;99579.94;5094950;28;20507;-65
2022/12/10 14:20:02;;;;;;;17.02;5.93;;;;;;;1.83;89.87;99577.44;5094840;28;20123;-66
2022/12/10 14:22:38;;;;;;;13.30;5.57;;;;;;;1.77;91.88;99584.06;5094924;28;20423;-65
2022/12/10 14:25:11;;;;;;;9.05;4.63;;;;;;;1.80;92.08;99586.41;5094933;28;20071;-65
2022/12/10 14:27:36;;;;;;;8.23;4.32;;;;;;;1.87;90.69;99584.06;5095191;28;20411;-65
2022/12/10 14:30:26;;;;;;;11.70;4.85;;;;;;;1.92;91.20;99592.38;5094883;28;20044;-65
2022/12/10 14:32:56;;;;;;;15.73;5.68;;;;;;;1.90;89.57;99589.06;5086812;28;20052;-65
2022/12/10 14:35:28;;;;;;;8.32;4.22;;;;;;;1.92;91.58;99596.81;5093240;28;20032;-65
2022/12/10 14:37:57;;;;;;;9.63;5.10;;;;;;;1.88;90.44;99588.34;5094692;28;20105;-65
2022/12/10 14:40:31;;;;;;;12.25;5.80;;;;;;;1.96;88.97;99599.03;5094448;28;20413;-65
2022/12/10 14:43:08;;;;;;;12.98;5.57;;;;;;;1.91;89.99;99593.34;5094556;28;20036;-65
2022/12/10 14:45:56;;;;;;;14.88;6.10;;;;;;;1.89;88.42;99606.63;5093129;28;20042;-65
2022/12/10 14:48:21;;;;;;;;;;;;;;;1.84;86.78;99605.34;5094974;28;20107;-65
2022/12/10 14:50:47;;;;;;;8.43;4.70;;;;;;;1.88;86.22;99607.56;5094084;28;19958;-65
2022/12/10 14:53:31;;;;;;;12.43;3.92;;;;;;;1.87;86.60;99607.69;5093912;28;20485;-65
2022/12/10 14:56:03;;;;;;;7.97;4.45;;;;;;;1.83;86.24;99611.59;5094260;28;20040;-66
2022/12/10 14:58:31;;;;;;;6.35;4.22;;;;;;;1.90;86.95;99620.59;5094386;28;20031;-65
2022/12/10 15:00:57;;;;;;;10.05;4.75;;;;;;;1.83;88.05;99614.22;5093962;28;20036;-65
2022/12/10 15:03:30;;;;;;;8.85;4.65;;;;;;;1.84;86.11;99615.88;5094157;28;20048;-64
2022/12/10 15:05:59;;;;;;;8.93;4.55;;;;;;;1.71;87.99;99625.75;5093999;28;20051;-64
2022/12/10 15:08:25;;;;;;;11.77;5.07;;;;;;;1.77;90.06;99623.44;5094225;28;20020;-65
2022/12/10 15:10:55;;;;;;;8.48;4.20;;;;;;;1.75;88.08;99625.34;5093678;28;20046;-64
2022/12/10 15:13:31;;;;;;;9.70;4.75;;;;;;;1.74;90.08;99621.06;5094026;28;20105;-67
2022/12/10 15:15:57;;;;;;;11.05;5.10;;;;;;;1.76;86.90;99621.78;5092819;28;20055;-65
2022/12/10 15:18:35;;;;;;;12.85;4.40;;;;;;;1.68;87.15;99626.84;5093820;28;20431;-65
2022/12/10 15:21:19;;;;;;;;;;;;;;;1.70;87.75;99630.19;5094125;28;20507;-65
2022/12/10 15:23:46;;;;;;;8.10;4.20;;;;;;;1.70;87.41;99630.19;5093662;28;19911;-66
2022/12/10 15:26:14;;;;;;;7.95;3.80;;;;;;;1.72;89.46;99635.31;5073284;28;20123;-65
2022/12/10 15:28:41;;;;;;;8.10;4.25;;;;;;;1.68;88.38;99626.84;5073053;28;20032;-65
2022/12/10 15:31:25;;;;;;;8.13;4.47;;;;;;;1.69;87.55;99631.13;5072876;28;20489;-66
2022/12/10 15:34:05;;;;;;;7.18;3.83;;;;;;;1.70;88.54;99630.19;5073665;28;20032;-66
2022/12/10 15:36:33;;;;;;;8.77;4.47;;;;;;;1.71;88.79;99636.28;5073747;28;20478;-66
2022/12/10 15:39:05;;;;;;;8.75;4.03;;;;;;;1.70;88.84;99629.34;5075603;28;20501;-66
2022/12/10 15:41:41;;;;;;;7.78;4.78;;;;;;;1.72;88.65;99633.50;5077623;28;20063;-66
2022/12/10 15:44:34;;;;;;;9.10;3.67;;;;;;;1.68;88.72;99632.09;5073354;28;20079;-66
2022/12/10 15:47:18;;;;;;;7.45;3.78;;;;;;;1.68;88.76;99634.72;5073236;28;20090;-66
2022/12/10 15:49:45;;;;;;;6.13;4.15;;;;;;;1.66;88.21;99638.44;5073025;28;20037;-64
2022/12/10 15:52:20;;;;;;;8.07;4.55;;;;;;;1.63;89.29;99636.94;5072694;28;20136;-66
2022/12/10 15:54:48;;;;;;;7.97;3.90;;;;;;;1.60;89.00;99634.53;5072932;28;20028;-66
2022/12/10 15:57:23;;;;;;;10.32;5.50;;;;;;;1.61;88.85;99636.22;5073062;28;20036;-68
2022/12/10 15:59:53;;;;;;;8.93;3.80;;;;;;;1.61;89.17;99644.91;5073027;28;20044;-66
2022/12/10 16:02:38;;;;;;;8.18;3.80;;;;;;;1.60;89.16;99642.44;5072605;28;20440;-66
2022/12/10 16:05:10;;;;;;;7.57;4.78;;;;;;;1.59;89.83;99646.00;5071905;28;20400;-66
2022/12/10 16:07:35;;;;;;;8.88;4.35;;;;;;;1.59;95.35;99644.22;5072681;28;20051;-65
2022/12/10 16:10:01;;;;;;;9.20;4.30;;;;;;;1.61;95.13;99649.34;5072425;28;20413;-63
2022/12/10 16:12:26;;;;;;;7.85;4.60;;;;;;;1.62;95.49;99653.63;5071209;28;20501;-64
2022/12/10 16:14:59;;;;;;;10.50;4.57;;;;;;;1.62;93.66;99661.50;5072440;28;20121;-68
2022/12/10 16:17:25;;;;;;;10.27;5.03;;;;;;;1.60;92.59;99666.88;5072468;28;20057;-68
2022/12/10 16:19:53;;;;;;;8.60;4.47;;;;;;;1.55;95.23;99658.56;5072423;28;20477;-69
2022/12/10 16:22:18;;;;;;;8.93;4.10;;;;;;;1.55;94.64;99669.06;5072229;28;20457;-68
2022/12/10 16:24:43;;;;;;;6.93;4.22;;;;;;;1.55;96.97;99671.69;5072204;28;20110;-69
2022/12/10 16:27:14;;;;;;;10.32;4.93;;;;;;;1.47;98.84;99675.94;5072344;28;20090;-68
2022/12/10 16:29:41;;;;;;;7.63;4.43;;;;;;;1.45;98.81;99672.59;5072272;28;20107;-68
2022/12/10 16:32:11;;;;;;;10.90;4.88;;;;;;;1.49;96.58;99680.06;5071915;28;20082;-68
2022/12/10 16:34:38;;;;;;;8.90;4.88;;;;;;;1.41;95.19;99676.44;5070848;28;20458;-68
2022/12/10 16:37:05;;;;;;;10.38;4.40;;;;;;;1.45;98.09;99677.84;5072207;28;20070;-68
2022/12/10 16:39:31;;;;;;;12.05;5.40;;;;;;;1.43;96.74;99677.97;5072163;28;20067;-68
2022/12/10 16:41:56;;;;;;;6.22;3.95;;;;;;;1.30;98.85;99680.81;5071768;28;20455;-69
2022/12/10 16:44:22;;;;;;;8.70;4.05;;;;;;;1.25;100.00;99680.34;5071976;28;20497;-70
2022/12/10 16:46:47;;;;;;;9.55;3.97;;;;;;;1.21;100.00;99683.34;5084912;28;20113;-68
2022/12/10 16:49:13;;;;;;;8.60;4.45;;;;;;;1.04;100.00;99679.47;5092037;28;20122;-68
2022/12/10 16:51:39;;;;;;;7.40;4.18;;;;;;;1.21;100.00;99681.56;5091899;28;20067;-70
2022/12/10 16:54:04;;;;;;;8.05;4.30;;;;;;;1.19;100.00;99686.09;5092164;28;20422;-69
2022/12/10 16:56:30;;;;;;;8.77;4.28;;;;;;;1.22;100.00;99682.38;5092015;28;20045;-69
2022/12/10 16:58:56;;;;;;;13.63;5.47;;;;;;;1.17;100.00;99681.94;5092101;28;20106;-68
2022/12/10 17:01:30;;;;;;;9.10;4.22;;;;;;;1.27;100.00;99688.09;5091746;28;20036;-68
2022/12/10 17:03:57;;;;;;;10.52;5.03;;;;;;;1.26;100.00;99682.00;5092018;28;20040;-69
2022/12/10 17:06:22;;;;;;;8.43;4.10;;;;;;;1.30;100.00;99693.94;5091891;28;20031;-67
2022/12/10 17:08:48;;;;;;;11.73;5.18;;;;;;;1.29;100.00;99691.41;5092463;28;20558;-67
2022/12/10 17:14:05;;;;;;;6.57;3.65;;;;;;;1.31;100.00;99692.97;5091922;28;20032;-67
2022/12/10 17:16:31;;;;;;;8.40;4.53;;;;;;;1.30;100.00;99695.69;5091685;28;20047;-68
2022/12/10 17:18:56;;;;;;;8.07;4.80;;;;;;;1.30;100.00;99696.56;5091958;28;20043;-68